createdAt,value
2023-01-09T00:04:14.496Z,8.36
2023-01-09T00:10:01.589Z,8.26
2023-01-09T00:15:49.018Z,8.04
2023-01-09T00:21:36.624Z,8.15
2023-01-09T00:27:23.354Z,8.06
2023-01-09T00:33:10.523Z,8.06
2023-01-09T00:38:57.286Z,8.07
2023-01-09T00:44:49.396Z,8.10
2023-01-09T00:50:36.716Z,8.07
2023-01-09T00:56:25.807Z,8.07
2023-01-09T01:02:12.826Z,8.00
2023-01-09T01:07:59.568Z,8.16
2023-01-09T01:13:46.244Z,8.29
2023-01-09T01:19:36.365Z,7.94
2023-01-09T01:25:23.105Z,8.25
2023-01-09T01:31:16.941Z,8.17
2023-01-09T01:37:03.761Z,8.22
2023-01-09T01:42:53.919Z,8.13
2023-01-09T01:48:40.585Z,8.04
2023-01-09T01:54:30.459Z,8.15
2023-01-09T02:00:21.671Z,8.11
2023-01-09T02:06:09.706Z,8.07
2023-01-09T02:11:57.950Z,8.11
2023-01-09T02:17:59.631Z,8.17
2023-01-09T02:24:15.322Z,8.21
2023-01-09T02:30:25.929Z,7.85
2023-01-09T02:36:18.271Z,7.68
2023-01-09T02:42:15.027Z,7.57
2023-01-09T02:48:01.955Z,7.67
2023-01-09T02:54:18.737Z,7.70
2023-01-09T03:00:31.795Z,7.76
2023-01-09T03:06:21.974Z,7.59
2023-01-09T03:12:17.620Z,7.53
2023-01-09T03:18:07.236Z,7.61
2023-01-09T03:23:57.049Z,7.29
2023-01-09T03:29:43.974Z,7.37
2023-01-09T03:35:30.709Z,7.36
2023-01-09T03:41:19.298Z,7.32
2023-01-09T03:47:06.007Z,7.48
2023-01-09T03:52:53.207Z,7.42
2023-01-09T03:58:39.852Z,7.32
2023-01-09T04:04:26.690Z,7.31
2023-01-09T04:10:13.299Z,7.17
2023-01-09T04:16:00.073Z,7.34
2023-01-09T04:21:46.854Z,7.40
2023-01-09T04:27:34.003Z,7.49
2023-01-09T04:33:20.666Z,7.38
2023-01-09T04:39:07.306Z,7.39
2023-01-09T04:44:54.226Z,7.48
2023-01-09T04:50:41.005Z,7.48
2023-01-09T04:56:27.748Z,7.46
2023-01-09T05:02:14.570Z,7.41
2023-01-09T05:08:01.218Z,7.43
2023-01-09T05:13:47.892Z,7.31
2023-01-09T05:19:34.724Z,7.19
2023-01-09T05:25:21.401Z,7.26
2023-01-09T05:31:08.194Z,7.33
2023-01-09T05:36:54.965Z,7.05
2023-01-09T05:42:43.090Z,7.01
2023-01-09T05:48:29.877Z,6.97
2023-01-09T05:54:16.560Z,6.81
2023-01-09T06:00:05.205Z,7.10
2023-01-09T06:05:53.650Z,7.03
2023-01-09T06:11:40.268Z,7.05
2023-01-09T06:17:27.013Z,7.14
2023-01-09T06:23:14.051Z,7.19
2023-01-09T06:29:01.642Z,7.24
2023-01-09T06:34:48.787Z,7.07
2023-01-09T06:40:35.600Z,7.19
2023-01-09T06:46:22.615Z,7.10
2023-01-09T06:52:09.479Z,7.17
2023-01-09T06:57:56.140Z,7.35
2023-01-09T07:03:43.931Z,7.42
2023-01-09T07:09:31.152Z,7.39
2023-01-09T07:15:17.877Z,7.44
2023-01-09T07:21:06.194Z,7.64
2023-01-09T07:26:52.859Z,7.36
2023-01-09T07:32:41.169Z,7.14
2023-01-09T07:38:32.085Z,7.10
2023-01-09T07:44:21.773Z,7.21
2023-01-09T07:50:09.377Z,7.37
2023-01-09T07:55:56.065Z,7.06
2023-01-09T08:01:43.060Z,7.02
2023-01-09T08:07:29.849Z,6.88
2023-01-09T08:13:17.176Z,6.93
2023-01-09T08:19:03.841Z,6.95
2023-01-09T08:24:50.939Z,7.12
2023-01-09T08:30:37.967Z,7.16
2023-01-09T08:36:24.741Z,7.27
2023-01-09T08:42:30.080Z,7.20
2023-01-09T08:48:17.151Z,7.32
2023-01-09T08:54:03.970Z,7.26
2023-01-09T08:59:53.200Z,7.27
2023-01-09T09:05:39.996Z,7.57
2023-01-09T09:11:26.770Z,7.77
2023-01-09T09:17:13.649Z,7.75
2023-01-09T09:23:00.767Z,7.81
2023-01-09T09:28:47.708Z,7.82
2023-01-09T09:34:34.861Z,8.05
2023-01-09T09:40:34.444Z,8.14
2023-01-09T09:46:24.216Z,8.03
2023-01-09T09:52:27.810Z,8.18
2023-01-09T09:58:34.482Z,8.38
2023-01-09T10:04:23.988Z,8.25
2023-01-09T10:10:29.276Z,8.42
2023-01-09T10:16:28.769Z,8.53
2023-01-09T10:22:39.450Z,8.66
2023-01-09T10:28:56.257Z,8.78
2023-01-09T10:35:18.231Z,8.77
2023-01-09T10:41:10.531Z,8.96
2023-01-09T10:47:00.564Z,8.89
2023-01-09T10:52:50.927Z,8.75
2023-01-09T10:58:37.658Z,8.95
2023-01-09T11:04:32.368Z,9.28
2023-01-09T11:10:19.319Z,9.42
2023-01-09T11:16:16.522Z,9.72
2023-01-09T11:22:09.325Z,9.50
2023-01-09T11:28:02.223Z,9.80
2023-01-09T11:33:50.404Z,9.59
2023-01-09T11:39:41.662Z,9.50
2023-01-09T11:45:34.879Z,9.72
2023-01-09T11:51:26.551Z,9.69
2023-01-09T11:57:13.343Z,9.65
2023-01-09T12:03:18.080Z,9.67
2023-01-09T12:09:19.544Z,9.43
2023-01-09T12:15:10.181Z,9.51
2023-01-09T12:21:30.911Z,9.31
2023-01-09T12:27:36.483Z,9.41
2023-01-09T12:33:29.600Z,9.75
2023-01-09T12:40:13.579Z,9.77
2023-01-09T12:46:12.976Z,9.92
2023-01-09T12:52:12.835Z,9.95
2023-01-09T12:58:06.557Z,9.70
2023-01-09T13:04:09.864Z,9.75
2023-01-09T13:09:59.831Z,9.86
2023-01-09T13:16:09.961Z,9.55
2023-01-09T13:21:58.499Z,9.70
2023-01-09T13:28:02.004Z,9.82
2023-01-09T13:33:56.733Z,9.77
2023-01-09T13:39:44.497Z,9.85
2023-01-09T13:45:34.252Z,9.77
2023-01-09T13:51:44.056Z,9.98
2023-01-09T13:57:34.801Z,10.04
2023-01-09T14:03:26.921Z,9.81
2023-01-09T14:09:22.921Z,9.94
2023-01-09T14:15:26.935Z,9.91
2023-01-09T14:21:13.846Z,9.75
2023-01-09T14:27:01.982Z,9.79
2023-01-09T14:33:27.664Z,9.41
2023-01-09T14:39:15.312Z,9.59
2023-01-09T14:45:24.023Z,9.69
2023-01-09T14:51:18.592Z,9.80
2023-01-09T14:57:27.361Z,9.67
2023-01-09T15:03:16.443Z,9.86
2023-01-09T15:09:07.938Z,8.99
2023-01-09T15:14:59.430Z,8.73
2023-01-09T15:20:46.260Z,8.58
2023-01-09T15:26:32.928Z,8.48
2023-01-09T15:32:26.060Z,8.53
2023-01-09T15:38:16.376Z,8.38
2023-01-09T15:44:05.411Z,8.46
2023-01-09T15:49:52.688Z,8.20
2023-01-09T15:55:40.314Z,8.09
2023-01-09T16:01:39.562Z,8.43
2023-01-09T16:07:26.919Z,8.07
2023-01-09T16:13:16.338Z,8.08
2023-01-09T16:19:04.994Z,8.07
2023-01-09T16:24:57.147Z,8.14
2023-01-09T16:30:55.951Z,8.28
2023-01-09T16:36:43.319Z,8.18
2023-01-09T16:42:51.287Z,8.16
2023-01-09T16:48:39.502Z,8.41
2023-01-09T16:54:26.345Z,8.51
2023-01-09T17:00:20.876Z,8.59
2023-01-09T17:06:10.416Z,8.69
2023-01-09T17:11:57.160Z,8.57
2023-01-09T17:17:47.759Z,8.67
2023-01-09T17:23:35.023Z,8.49
2023-01-09T17:29:21.824Z,8.63
2023-01-09T17:35:13.716Z,8.52
2023-01-09T17:41:00.634Z,8.30
2023-01-09T17:46:47.584Z,8.38
2023-01-09T17:52:34.540Z,8.21
2023-01-09T17:58:29.005Z,8.12
2023-01-09T18:04:15.861Z,7.93
2023-01-09T18:10:02.781Z,8.12
2023-01-09T18:15:51.717Z,7.88
2023-01-09T18:21:39.711Z,7.99
2023-01-09T18:27:27.503Z,7.82
2023-01-09T18:33:15.982Z,7.75
2023-01-09T18:39:04.611Z,7.65
2023-01-09T18:44:53.691Z,7.66
2023-01-09T18:50:40.441Z,7.50
2023-01-09T18:56:27.411Z,7.50
2023-01-09T19:02:24.936Z,7.32
2023-01-09T19:08:11.839Z,7.44
2023-01-09T19:13:58.662Z,7.47
2023-01-09T19:19:45.478Z,7.49
2023-01-09T19:25:32.591Z,7.68
2023-01-09T19:31:19.457Z,7.68
2023-01-09T19:37:11.203Z,7.51
2023-01-09T19:42:59.458Z,7.52
2023-01-09T19:48:54.754Z,7.52
2023-01-09T19:54:41.569Z,7.39
2023-01-09T20:00:28.301Z,7.59
2023-01-09T20:06:24.963Z,7.44
2023-01-09T20:12:11.823Z,7.47
2023-01-09T20:17:58.529Z,7.24
2023-01-09T20:23:45.420Z,7.19
2023-01-09T20:29:32.553Z,7.20
2023-01-09T20:35:23.126Z,7.30
2023-01-09T20:41:22.733Z,7.22
2023-01-09T20:47:11.942Z,7.24
2023-01-09T20:52:58.866Z,7.26
2023-01-09T20:58:45.918Z,7.29
2023-01-09T21:04:33.164Z,6.92
2023-01-09T21:10:20.395Z,6.91
2023-01-09T21:16:10.420Z,7.06
2023-01-09T21:21:57.135Z,6.77
2023-01-09T21:27:51.541Z,6.89
2023-01-09T21:33:38.972Z,6.89
2023-01-09T21:39:25.928Z,6.95
2023-01-09T21:45:34.947Z,6.90
2023-01-09T21:51:22.961Z,6.74
2023-01-09T21:57:13.093Z,6.57
2023-01-09T22:03:01.202Z,6.39
2023-01-09T22:08:51.943Z,6.45
2023-01-09T22:14:40.456Z,6.44
2023-01-09T22:20:29.765Z,6.42
2023-01-09T22:26:19.500Z,6.63
2023-01-09T22:32:10.080Z,6.57
2023-01-09T22:37:59.519Z,6.59
2023-01-09T22:43:49.873Z,6.51
2023-01-09T22:49:51.762Z,6.52
2023-01-09T22:55:39.750Z,6.55
2023-01-09T23:01:27.282Z,6.56
2023-01-09T23:07:14.538Z,6.54
2023-01-09T23:13:01.573Z,6.71
2023-01-09T23:18:48.399Z,6.38
2023-01-09T23:24:35.220Z,6.45
2023-01-09T23:30:22.196Z,6.32
2023-01-09T23:36:09.172Z,6.30
2023-01-09T23:42:31.142Z,6.22
2023-01-09T23:48:19.157Z,6.46
2023-01-09T23:54:06.108Z,6.46
2023-01-09T23:59:52.777Z,6.59
